Airfield :







YOU CAN JOIN US ON...

 
LOGIN :

Register | Disclaimer

   EN    FR    IT 

 









Legend :    VFR   Marginal VFR   IFR   Intensive IFR   Very Intensive IFR
Visi :
Ceiling :
>= 8 km
>= 3000ft
5 to 8 km
1000 to 3000 ft
1500m to 5 km
500 to 1000 ft
800 to 1500m
200 to 500 ft
< 800m
< 200 ft
Symbols :   Thunderstorms  Fog  Heavy snow  Heavy precipitations  Wind > 20 kt







- Airport Elevation : 180 ft
- IATA code : YZV


CYZV - Sept-Iles

CURRENT METAR :
  • 210900Z 31004KT 30SM SCT075 BKN150 BKN220 12/12 A2959 RMK AC3AC2CI1 CI TR SLP022 DENSITY ALT 300FT

EXPIRED METARs :
  • 210816Z 35004KT 30SM MIFG FEW001 FEW100 FEW220 13/13 A2957 RMK SF1AC1CI2 SF TR AC TR SLP014 DENSITY ALT 500FT
  • 210800Z 35005KT 20SM FEW120 FEW220 13/13 A2956 RMK AC1CI1 AC TR SLP012 DENSITY ALT 400FT
  • 210700Z 31005KT 15SM FEW120 10/10 A2956 RMK AC1 AC TR SLP013

TAF TAF CYZV
Valid from the 21 at 06:00 until the 22 at 06:00 UTC


210539Z 2106/2206 VRB03KT P6SM FEW040 SCT160
PROB30 2107/2111 3/4SM BR VV002
FM211400 16008KT P6SM SCT040
BECMG 2116/2118 24008KT
FM220200 34005KT P6SM SCT060 RMK NXT FCST BY 211200Z
CZUL FIR / North America



MET'MAP, your aeronautical weather chart ! - Copyright ORBIFLY December 2007 - Disclaimer

ORBIFLY MET'MAP TEAM :

Programming & Development : Alexandra Zaïnal
Concept & Development : Baudouin d'Aumeries
Co-Development & Prog : Marc-Olivier Méhu
Technical & hardware support : Manuel Goepfert

Contact : metmap@orbifly.com




SOURCES & CREDITS :

   NOAA